sensor_id;sensor_type;location;lat;lon;timestamp;P1;durP1;ratioP1;P2;durP2;ratioP2
51475;SDS011;37554;50.362;7.568;2023-05-06T00:00:50;3.70;;;0.70;;
51475;SDS011;37554;50.362;7.568;2023-05-06T00:03:16;1.15;;;0.90;;
51475;SDS011;37554;50.362;7.568;2023-05-06T00:05:42;1.23;;;0.70;;
51475;SDS011;37554;50.362;7.568;2023-05-06T00:08:09;1.85;;;0.98;;
51475;SDS011;37554;50.362;7.568;2023-05-06T00:10:35;1.73;;;0.85;;
51475;SDS011;37554;50.362;7.568;2023-05-06T00:13:01;1.38;;;0.90;;
51475;SDS011;37554;50.362;7.568;2023-05-06T00:15:26;1.10;;;0.77;;
51475;SDS011;37554;50.362;7.568;2023-05-06T00:17:53;1.73;;;0.93;;
51475;SDS011;37554;50.362;7.568;2023-05-06T00:20:19;1.50;;;0.90;;
51475;SDS011;37554;50.362;7.568;2023-05-06T00:22:45;1.90;;;0.90;;
51475;SDS011;37554;50.362;7.568;2023-05-06T00:25:10;2.75;;;1.00;;
51475;SDS011;37554;50.362;7.568;2023-05-06T00:27:36;3.45;;;0.70;;
51475;SDS011;37554;50.362;7.568;2023-05-06T00:30:02;1.58;;;0.70;;
51475;SDS011;37554;50.362;7.568;2023-05-06T00:32:28;1.55;;;0.70;;
51475;SDS011;37554;50.362;7.568;2023-05-06T00:34:54;2.72;;;0.75;;
51475;SDS011;37554;50.362;7.568;2023-05-06T00:37:20;1.45;;;0.68;;
51475;SDS011;37554;50.362;7.568;2023-05-06T00:39:45;1.00;;;0.60;;
51475;SDS011;37554;50.362;7.568;2023-05-06T00:42:11;2.58;;;1.10;;
51475;SDS011;37554;50.362;7.568;2023-05-06T00:44:36;2.67;;;0.60;;
51475;SDS011;37554;50.362;7.568;2023-05-06T00:47:02;1.83;;;0.88;;
51475;SDS011;37554;50.362;7.568;2023-05-06T00:49:29;1.23;;;0.73;;
51475;SDS011;37554;50.362;7.568;2023-05-06T00:51:55;1.52;;;0.85;;
51475;SDS011;37554;50.362;7.568;2023-05-06T00:54:23;1.10;;;0.90;;
51475;SDS011;37554;50.362;7.568;2023-05-06T00:56:49;1.20;;;0.80;;
51475;SDS011;37554;50.362;7.568;2023-05-06T00:59:15;1.20;;;0.70;;
51475;SDS011;37554;50.362;7.568;2023-05-06T01:01:40;1.10;;;0.80;;
51475;SDS011;37554;50.362;7.568;2023-05-06T01:04:06;1.27;;;0.70;;
51475;SDS011;37554;50.362;7.568;2023-05-06T01:15:01;1.52;;;0.60;;
51475;SDS011;37554;50.362;7.568;2023-05-06T01:17:42;1.42;;;0.90;;
51475;SDS011;37554;50.362;7.568;2023-05-06T01:20:10;1.02;;;0.70;;
51475;SDS011;37554;50.362;7.568;2023-05-06T01:22:36;3.92;;;1.02;;
51475;SDS011;37554;50.362;7.568;2023-05-06T01:25:03;1.55;;;0.50;;
51475;SDS011;37554;50.362;7.568;2023-05-06T01:27:29;1.30;;;0.60;;
51475;SDS011;37554;50.362;7.568;2023-05-06T01:29:54;1.13;;;0.70;;
51475;SDS011;37554;50.362;7.568;2023-05-06T01:38:16;1.50;;;0.70;;
51475;SDS011;37554;50.362;7.568;2023-05-06T01:40:44;1.70;;;0.90;;
51475;SDS011;37554;50.362;7.568;2023-05-06T01:43:18;3.65;;;0.98;;
51475;SDS011;37554;50.362;7.568;2023-05-06T01:45:44;1.00;;;0.90;;
51475;SDS011;37554;50.362;7.568;2023-05-06T01:48:17;1.15;;;0.70;;
51475;SDS011;37554;50.362;7.568;2023-05-06T01:50:46;2.10;;;0.90;;
51475;SDS011;37554;50.362;7.568;2023-05-06T01:53:11;2.85;;;0.90;;
51475;SDS011;37554;50.362;7.568;2023-05-06T01:55:37;2.97;;;1.13;;
51475;SDS011;37554;50.362;7.568;2023-05-06T01:58:02;1.02;;;0.77;;
51475;SDS011;37554;50.362;7.568;2023-05-06T02:00:28;1.52;;;0.68;;
51475;SDS011;37554;50.362;7.568;2023-05-06T02:02:54;1.05;;;0.80;;
51475;SDS011;37554;50.362;7.568;2023-05-06T02:05:20;1.73;;;0.80;;
51475;SDS011;37554;50.362;7.568;2023-05-06T02:07:45;1.35;;;0.82;;
51475;SDS011;37554;50.362;7.568;2023-05-06T02:10:11;3.75;;;0.73;;
51475;SDS011;37554;50.362;7.568;2023-05-06T02:12:37;1.42;;;0.65;;
51475;SDS011;37554;50.362;7.568;2023-05-06T02:15:02;0.77;;;0.60;;
51475;SDS011;37554;50.362;7.568;2023-05-06T02:17:28;1.83;;;0.98;;
51475;SDS011;37554;50.362;7.568;2023-05-06T02:19:54;2.13;;;0.95;;
51475;SDS011;37554;50.362;7.568;2023-05-06T02:22:19;2.55;;;0.63;;
51475;SDS011;37554;50.362;7.568;2023-05-06T02:24:45;2.05;;;1.02;;
51475;SDS011;37554;50.362;7.568;2023-05-06T02:27:10;1.10;;;0.70;;
51475;SDS011;37554;50.362;7.568;2023-05-06T02:29:36;1.83;;;0.75;;
51475;SDS011;37554;50.362;7.568;2023-05-06T02:32:02;0.88;;;0.60;;
51475;SDS011;37554;50.362;7.568;2023-05-06T02:34:27;3.92;;;0.80;;
51475;SDS011;37554;50.362;7.568;2023-05-06T02:36:53;1.92;;;1.00;;
51475;SDS011;37554;50.362;7.568;2023-05-06T02:39:18;1.83;;;0.75;;
51475;SDS011;37554;50.362;7.568;2023-05-06T02:41:44;1.58;;;0.68;;
51475;SDS011;37554;50.362;7.568;2023-05-06T02:44:09;1.30;;;0.80;;
51475;SDS011;37554;50.362;7.568;2023-05-06T02:46:35;1.30;;;0.65;;
51475;SDS011;37554;50.362;7.568;2023-05-06T02:49:01;1.33;;;0.80;;
51475;SDS011;37554;50.362;7.568;2023-05-06T02:51:27;0.90;;;0.50;;
51475;SDS011;37554;50.362;7.568;2023-05-06T02:53:52;1.40;;;0.85;;
51475;SDS011;37554;50.362;7.568;2023-05-06T02:56:18;1.75;;;0.70;;
51475;SDS011;37554;50.362;7.568;2023-05-06T02:58:44;1.80;;;0.82;;
51475;SDS011;37554;50.362;7.568;2023-05-06T03:01:09;3.25;;;0.70;;
51475;SDS011;37554;50.362;7.568;2023-05-06T03:03:35;0.63;;;0.55;;
51475;SDS011;37554;50.362;7.568;2023-05-06T03:06:00;2.03;;;0.88;;
51475;SDS011;37554;50.362;7.568;2023-05-06T03:08:26;2.92;;;0.90;;
51475;SDS011;37554;50.362;7.568;2023-05-06T03:10:51;1.63;;;0.68;;
51475;SDS011;37554;50.362;7.568;2023-05-06T03:13:17;1.42;;;0.50;;
51475;SDS011;37554;50.362;7.568;2023-05-06T03:15:43;1.50;;;0.68;;
51475;SDS011;37554;50.362;7.568;2023-05-06T03:18:08;0.60;;;0.60;;
51475;SDS011;37554;50.362;7.568;2023-05-06T03:20:34;0.70;;;0.60;;
51475;SDS011;37554;50.362;7.568;2023-05-06T03:22:59;0.70;;;0.50;;
51475;SDS011;37554;50.362;7.568;2023-05-06T03:25:25;1.60;;;0.70;;
51475;SDS011;37554;50.362;7.568;2023-05-06T03:27:51;1.75;;;0.60;;
51475;SDS011;37554;50.362;7.568;2023-05-06T03:30:16;2.15;;;0.55;;
51475;SDS011;37554;50.362;7.568;2023-05-06T03:32:42;1.25;;;0.70;;
51475;SDS011;37554;50.362;7.568;2023-05-06T03:35:08;0.82;;;0.60;;
51475;SDS011;37554;50.362;7.568;2023-05-06T03:37:35;2.45;;;0.68;;
51475;SDS011;37554;50.362;7.568;2023-05-06T03:40:00;1.08;;;0.55;;
51475;SDS011;37554;50.362;7.568;2023-05-06T03:42:28;0.75;;;0.50;;
51475;SDS011;37554;50.362;7.568;2023-05-06T03:44:54;1.23;;;0.68;;
51475;SDS011;37554;50.362;7.568;2023-05-06T03:47:19;0.98;;;0.70;;
51475;SDS011;37554;50.362;7.568;2023-05-06T03:49:45;0.88;;;0.57;;
51475;SDS011;37554;50.362;7.568;2023-05-06T03:52:10;1.02;;;0.73;;
51475;SDS011;37554;50.362;7.568;2023-05-06T03:54:36;1.92;;;0.77;;
51475;SDS011;37554;50.362;7.568;2023-05-06T03:57:01;0.82;;;0.50;;
51475;SDS011;37554;50.362;7.568;2023-05-06T03:59:27;0.85;;;0.63;;
51475;SDS011;37554;50.362;7.568;2023-05-06T04:01:53;1.92;;;0.77;;
51475;SDS011;37554;50.362;7.568;2023-05-06T04:04:18;0.63;;;0.60;;
51475;SDS011;37554;50.362;7.568;2023-05-06T04:06:44;0.63;;;0.50;;
51475;SDS011;37554;50.362;7.568;2023-05-06T04:09:09;1.50;;;0.68;;
51475;SDS011;37554;50.362;7.568;2023-05-06T04:11:35;1.15;;;0.50;;
51475;SDS011;37554;50.362;7.568;2023-05-06T04:14:00;0.85;;;0.70;;
51475;SDS011;37554;50.362;7.568;2023-05-06T04:16:26;1.23;;;0.60;;
51475;SDS011;37554;50.362;7.568;2023-05-06T04:18:52;1.23;;;0.57;;
51475;SDS011;37554;50.362;7.568;2023-05-06T04:21:17;0.90;;;0.60;;
51475;SDS011;37554;50.362;7.568;2023-05-06T04:23:43;1.73;;;0.60;;
51475;SDS011;37554;50.362;7.568;2023-05-06T04:26:09;1.02;;;0.57;;
51475;SDS011;37554;50.362;7.568;2023-05-06T04:28:34;3.83;;;0.82;;
51475;SDS011;37554;50.362;7.568;2023-05-06T04:31:00;1.20;;;0.60;;
51475;SDS011;37554;50.362;7.568;2023-05-06T04:33:26;1.48;;;0.50;;
51475;SDS011;37554;50.362;7.568;2023-05-06T04:35:53;0.70;;;0.40;;
51475;SDS011;37554;50.362;7.568;2023-05-06T04:38:20;1.45;;;0.60;;
51475;SDS011;37554;50.362;7.568;2023-05-06T04:40:46;1.00;;;0.40;;
51475;SDS011;37554;50.362;7.568;2023-05-06T04:43:13;0.70;;;0.40;;
51475;SDS011;37554;50.362;7.568;2023-05-06T04:45:41;1.63;;;0.68;;
51475;SDS011;37554;50.362;7.568;2023-05-06T04:48:13;0.50;;;0.50;;
51475;SDS011;37554;50.362;7.568;2023-05-06T04:50:42;1.17;;;0.70;;
51475;SDS011;37554;50.362;7.568;2023-05-06T04:53:08;0.85;;;0.40;;
51475;SDS011;37554;50.362;7.568;2023-05-06T04:55:34;0.75;;;0.47;;
51475;SDS011;37554;50.362;7.568;2023-05-06T04:58:00;1.15;;;0.73;;
51475;SDS011;37554;50.362;7.568;2023-05-06T05:00:26;2.15;;;0.43;;
51475;SDS011;37554;50.362;7.568;2023-05-06T05:02:52;0.93;;;0.50;;
51475;SDS011;37554;50.362;7.568;2023-05-06T05:05:18;1.75;;;0.75;;
51475;SDS011;37554;50.362;7.568;2023-05-06T05:07:44;1.08;;;0.70;;
51475;SDS011;37554;50.362;7.568;2023-05-06T05:10:10;1.08;;;0.70;;
51475;SDS011;37554;50.362;7.568;2023-05-06T05:12:36;2.30;;;0.40;;
51475;SDS011;37554;50.362;7.568;2023-05-06T05:15:01;0.45;;;0.40;;
51475;SDS011;37554;50.362;7.568;2023-05-06T05:17:27;0.93;;;0.50;;
51475;SDS011;37554;50.362;7.568;2023-05-06T05:19:53;1.08;;;0.60;;
51475;SDS011;37554;50.362;7.568;2023-05-06T05:22:19;1.85;;;0.50;;
51475;SDS011;37554;50.362;7.568;2023-05-06T05:24:44;0.85;;;0.60;;
51475;SDS011;37554;50.362;7.568;2023-05-06T05:27:10;1.15;;;0.57;;
51475;SDS011;37554;50.362;7.568;2023-05-06T05:29:36;1.38;;;0.50;;
51475;SDS011;37554;50.362;7.568;2023-05-06T05:32:02;0.88;;;0.50;;
51475;SDS011;37554;50.362;7.568;2023-05-06T05:34:28;0.50;;;0.47;;
51475;SDS011;37554;50.362;7.568;2023-05-06T05:36:54;3.50;;;0.82;;
51475;SDS011;37554;50.362;7.568;2023-05-06T05:39:21;0.65;;;0.50;;
51475;SDS011;37554;50.362;7.568;2023-05-06T05:41:47;0.73;;;0.43;;
51475;SDS011;37554;50.362;7.568;2023-05-06T05:44:13;0.73;;;0.50;;
51475;SDS011;37554;50.362;7.568;2023-05-06T05:46:38;1.40;;;0.40;;
51475;SDS011;37554;50.362;7.568;2023-05-06T05:49:04;0.70;;;0.38;;
51475;SDS011;37554;50.362;7.568;2023-05-06T05:51:30;0.47;;;0.32;;
51475;SDS011;37554;50.362;7.568;2023-05-06T05:53:56;0.90;;;0.40;;
51475;SDS011;37554;50.362;7.568;2023-05-06T05:56:21;1.70;;;0.60;;
51475;SDS011;37554;50.362;7.568;2023-05-06T05:58:47;0.63;;;0.30;;
51475;SDS011;37554;50.362;7.568;2023-05-06T06:01:13;1.00;;;0.40;;
51475;SDS011;37554;50.362;7.568;2023-05-06T06:03:38;1.30;;;0.40;;
51475;SDS011;37554;50.362;7.568;2023-05-06T06:06:04;0.50;;;0.32;;
51475;SDS011;37554;50.362;7.568;2023-05-06T06:08:30;1.20;;;0.60;;
51475;SDS011;37554;50.362;7.568;2023-05-06T06:10:57;3.25;;;0.50;;
51475;SDS011;37554;50.362;7.568;2023-05-06T06:13:22;1.13;;;0.45;;
51475;SDS011;37554;50.362;7.568;2023-05-06T06:15:48;2.15;;;0.57;;
51475;SDS011;37554;50.362;7.568;2023-05-06T06:18:14;1.77;;;0.73;;
51475;SDS011;37554;50.362;7.568;2023-05-06T06:20:40;1.30;;;0.63;;
51475;SDS011;37554;50.362;7.568;2023-05-06T06:23:05;0.80;;;0.68;;
51475;SDS011;37554;50.362;7.568;2023-05-06T06:25:31;1.30;;;0.70;;
51475;SDS011;37554;50.362;7.568;2023-05-06T06:27:56;1.35;;;0.70;;
51475;SDS011;37554;50.362;7.568;2023-05-06T06:30:22;1.23;;;0.50;;
51475;SDS011;37554;50.362;7.568;2023-05-06T06:32:49;3.55;;;0.60;;
51475;SDS011;37554;50.362;7.568;2023-05-06T06:35:15;0.85;;;0.50;;
51475;SDS011;37554;50.362;7.568;2023-05-06T06:37:41;1.80;;;0.50;;
51475;SDS011;37554;50.362;7.568;2023-05-06T06:40:07;0.65;;;0.50;;
51475;SDS011;37554;50.362;7.568;2023-05-06T06:42:35;0.80;;;0.50;;
51475;SDS011;37554;50.362;7.568;2023-05-06T06:45:01;0.85;;;0.40;;
51475;SDS011;37554;50.362;7.568;2023-05-06T06:47:26;0.70;;;0.40;;
51475;SDS011;37554;50.362;7.568;2023-05-06T06:49:52;0.63;;;0.43;;
51475;SDS011;37554;50.362;7.568;2023-05-06T06:52:17;1.25;;;0.57;;
51475;SDS011;37554;50.362;7.568;2023-05-06T06:54:43;1.73;;;0.60;;
51475;SDS011;37554;50.362;7.568;2023-05-06T06:57:08;1.92;;;0.50;;
51475;SDS011;37554;50.362;7.568;2023-05-06T06:59:34;1.65;;;0.80;;
51475;SDS011;37554;50.362;7.568;2023-05-06T07:02:00;0.63;;;0.40;;
51475;SDS011;37554;50.362;7.568;2023-05-06T07:04:26;1.23;;;0.60;;
51475;SDS011;37554;50.362;7.568;2023-05-06T07:06:52;0.60;;;0.50;;
51475;SDS011;37554;50.362;7.568;2023-05-06T07:09:17;1.77;;;0.77;;
51475;SDS011;37554;50.362;7.568;2023-05-06T07:11:43;1.23;;;0.60;;
51475;SDS011;37554;50.362;7.568;2023-05-06T07:14:09;2.58;;;0.80;;
51475;SDS011;37554;50.362;7.568;2023-05-06T07:16:35;0.68;;;0.50;;
51475;SDS011;37554;50.362;7.568;2023-05-06T07:19:01;1.17;;;0.85;;
51475;SDS011;37554;50.362;7.568;2023-05-06T07:21:26;2.15;;;0.60;;
51475;SDS011;37554;50.362;7.568;2023-05-06T07:23:52;2.25;;;0.70;;
51475;SDS011;37554;50.362;7.568;2023-05-06T07:26:19;2.72;;;0.60;;
51475;SDS011;37554;50.362;7.568;2023-05-06T07:28:45;0.70;;;0.60;;
51475;SDS011;37554;50.362;7.568;2023-05-06T07:31:10;1.50;;;0.70;;
51475;SDS011;37554;50.362;7.568;2023-05-06T07:33:36;1.35;;;0.80;;
51475;SDS011;37554;50.362;7.568;2023-05-06T07:36:02;0.90;;;0.50;;
51475;SDS011;37554;50.362;7.568;2023-05-06T07:38:27;0.77;;;0.57;;
51475;SDS011;37554;50.362;7.568;2023-05-06T07:40:53;0.93;;;0.65;;
51475;SDS011;37554;50.362;7.568;2023-05-06T07:43:20;0.82;;;0.45;;
51475;SDS011;37554;50.362;7.568;2023-05-06T07:45:46;1.73;;;0.68;;
51475;SDS011;37554;50.362;7.568;2023-05-06T07:48:12;0.85;;;0.50;;
51475;SDS011;37554;50.362;7.568;2023-05-06T07:50:38;1.02;;;0.50;;
51475;SDS011;37554;50.362;7.568;2023-05-06T07:53:03;0.40;;;0.30;;
51475;SDS011;37554;50.362;7.568;2023-05-06T07:55:29;0.75;;;0.40;;
51475;SDS011;37554;50.362;7.568;2023-05-06T07:57:55;0.50;;;0.30;;
51475;SDS011;37554;50.362;7.568;2023-05-06T08:00:20;0.85;;;0.60;;
51475;SDS011;37554;50.362;7.568;2023-05-06T08:02:46;0.70;;;0.50;;
51475;SDS011;37554;50.362;7.568;2023-05-06T08:05:12;0.88;;;0.50;;
51475;SDS011;37554;50.362;7.568;2023-05-06T08:07:39;0.75;;;0.40;;
51475;SDS011;37554;50.362;7.568;2023-05-06T08:10:05;0.50;;;0.40;;
51475;SDS011;37554;50.362;7.568;2023-05-06T08:12:33;1.08;;;0.50;;
51475;SDS011;37554;50.362;7.568;2023-05-06T08:15:00;1.40;;;0.40;;
51475;SDS011;37554;50.362;7.568;2023-05-06T08:17:26;0.68;;;0.30;;
51475;SDS011;37554;50.362;7.568;2023-05-06T08:19:51;0.75;;;0.40;;
51475;SDS011;37554;50.362;7.568;2023-05-06T08:22:17;1.10;;;0.40;;
51475;SDS011;37554;50.362;7.568;2023-05-06T08:24:43;0.80;;;0.43;;
51475;SDS011;37554;50.362;7.568;2023-05-06T08:27:09;1.52;;;0.30;;
51475;SDS011;37554;50.362;7.568;2023-05-06T08:29:35;0.82;;;0.40;;
51475;SDS011;37554;50.362;7.568;2023-05-06T08:32:01;1.75;;;0.43;;
51475;SDS011;37554;50.362;7.568;2023-05-06T08:34:26;1.38;;;0.50;;
51475;SDS011;37554;50.362;7.568;2023-05-06T08:36:52;1.38;;;0.30;;
51475;SDS011;37554;50.362;7.568;2023-05-06T08:39:17;1.27;;;0.43;;
51475;SDS011;37554;50.362;7.568;2023-05-06T08:41:46;0.30;;;0.30;;
51475;SDS011;37554;50.362;7.568;2023-05-06T08:44:14;0.98;;;0.30;;
51475;SDS011;37554;50.362;7.568;2023-05-06T08:46:42;0.80;;;0.57;;
51475;SDS011;37554;50.362;7.568;2023-05-06T08:49:09;0.60;;;0.38;;
51475;SDS011;37554;50.362;7.568;2023-05-06T08:51:34;1.33;;;0.30;;
51475;SDS011;37554;50.362;7.568;2023-05-06T08:54:02;0.57;;;0.30;;
51475;SDS011;37554;50.362;7.568;2023-05-06T08:56:29;1.17;;;0.60;;
51475;SDS011;37554;50.362;7.568;2023-05-06T08:58:57;0.63;;;0.20;;
51475;SDS011;37554;50.362;7.568;2023-05-06T09:01:24;0.63;;;0.30;;
51475;SDS011;37554;50.362;7.568;2023-05-06T09:03:53;1.20;;;0.20;;
51475;SDS011;37554;50.362;7.568;2023-05-06T09:06:22;1.55;;;0.40;;
51475;SDS011;37554;50.362;7.568;2023-05-06T09:08:49;1.85;;;0.40;;
51475;SDS011;37554;50.362;7.568;2023-05-06T09:11:21;0.60;;;0.30;;
51475;SDS011;37554;50.362;7.568;2023-05-06T09:13:48;0.28;;;0.28;;
51475;SDS011;37554;50.362;7.568;2023-05-06T09:16:25;0.50;;;0.20;;
51475;SDS011;37554;50.362;7.568;2023-05-06T09:18:52;0.75;;;0.30;;
51475;SDS011;37554;50.362;7.568;2023-05-06T09:21:17;1.42;;;0.30;;
51475;SDS011;37554;50.362;7.568;2023-05-06T09:23:43;0.70;;;0.20;;
51475;SDS011;37554;50.362;7.568;2023-05-06T09:26:09;0.73;;;0.30;;
51475;SDS011;37554;50.362;7.568;2023-05-06T09:28:35;1.90;;;0.20;;
51475;SDS011;37554;50.362;7.568;2023-05-06T09:31:00;0.30;;;0.13;;
51475;SDS011;37554;50.362;7.568;2023-05-06T09:33:26;0.40;;;0.40;;
51475;SDS011;37554;50.362;7.568;2023-05-06T09:35:52;1.60;;;0.40;;
51475;SDS011;37554;50.362;7.568;2023-05-06T09:38:17;0.40;;;0.20;;
51475;SDS011;37554;50.362;7.568;2023-05-06T09:40:43;0.30;;;0.20;;
51475;SDS011;37554;50.362;7.568;2023-05-06T09:43:09;1.08;;;0.30;;
51475;SDS011;37554;50.362;7.568;2023-05-06T09:45:36;0.52;;;0.20;;
51475;SDS011;37554;50.362;7.568;2023-05-06T09:48:02;2.25;;;0.32;;
51475;SDS011;37554;50.362;7.568;2023-05-06T09:50:28;1.05;;;0.30;;
51475;SDS011;37554;50.362;7.568;2023-05-06T09:52:54;0.50;;;0.30;;
51475;SDS011;37554;50.362;7.568;2023-05-06T09:55:21;0.60;;;0.30;;
51475;SDS011;37554;50.362;7.568;2023-05-06T09:57:50;0.52;;;0.20;;
51475;SDS011;37554;50.362;7.568;2023-05-06T10:00:17;0.30;;;0.20;;
51475;SDS011;37554;50.362;7.568;2023-05-06T10:02:43;1.25;;;0.30;;
51475;SDS011;37554;50.362;7.568;2023-05-06T10:05:10;2.45;;;0.20;;
51475;SDS011;37554;50.362;7.568;2023-05-06T10:07:36;1.20;;;0.38;;
51475;SDS011;37554;50.362;7.568;2023-05-06T10:10:05;0.45;;;0.30;;
51475;SDS011;37554;50.362;7.568;2023-05-06T10:12:35;0.73;;;0.43;;
51475;SDS011;37554;50.362;7.568;2023-05-06T10:15:02;1.25;;;0.20;;
51475;SDS011;37554;50.362;7.568;2023-05-06T10:17:28;0.80;;;0.38;;
51475;SDS011;37554;50.362;7.568;2023-05-06T10:19:57;1.85;;;0.50;;
51475;SDS011;37554;50.362;7.568;2023-05-06T10:24:58;0.43;;;0.38;;
51475;SDS011;37554;50.362;7.568;2023-05-06T10:27:48;2.92;;;0.60;;
51475;SDS011;37554;50.362;7.568;2023-05-06T10:30:14;1.58;;;0.25;;
51475;SDS011;37554;50.362;7.568;2023-05-06T10:32:43;3.00;;;0.60;;
51475;SDS011;37554;50.362;7.568;2023-05-06T10:35:28;0.68;;;0.43;;
51475;SDS011;37554;50.362;7.568;2023-05-06T10:38:18;1.13;;;0.30;;
51475;SDS011;37554;50.362;7.568;2023-05-06T10:40:46;0.90;;;0.40;;
51475;SDS011;37554;50.362;7.568;2023-05-06T10:43:28;0.50;;;0.30;;
51475;SDS011;37554;50.362;7.568;2023-05-06T10:48:34;0.43;;;0.20;;
51475;SDS011;37554;50.362;7.568;2023-05-06T10:53:54;0.40;;;0.20;;
51475;SDS011;37554;50.362;7.568;2023-05-06T10:56:23;0.60;;;0.30;;
51475;SDS011;37554;50.362;7.568;2023-05-06T10:58:50;1.45;;;0.30;;
51475;SDS011;37554;50.362;7.568;2023-05-06T11:01:19;0.40;;;0.20;;
51475;SDS011;37554;50.362;7.568;2023-05-06T11:03:46;1.23;;;0.35;;
51475;SDS011;37554;50.362;7.568;2023-05-06T11:06:13;0.63;;;0.30;;
51475;SDS011;37554;50.362;7.568;2023-05-06T11:09:04;0.73;;;0.25;;
51475;SDS011;37554;50.362;7.568;2023-05-06T11:14:29;1.42;;;0.20;;
51475;SDS011;37554;50.362;7.568;2023-05-06T11:17:00;1.20;;;0.40;;
51475;SDS011;37554;50.362;7.568;2023-05-06T11:22:00;0.70;;;0.38;;
51475;SDS011;37554;50.362;7.568;2023-05-06T11:24:29;1.52;;;0.30;;
51475;SDS011;37554;50.362;7.568;2023-05-06T11:27:05;1.05;;;0.30;;
51475;SDS011;37554;50.362;7.568;2023-05-06T11:29:33;0.90;;;0.30;;
51475;SDS011;37554;50.362;7.568;2023-05-06T11:31:58;0.60;;;0.30;;
51475;SDS011;37554;50.362;7.568;2023-05-06T11:34:28;0.68;;;0.30;;
51475;SDS011;37554;50.362;7.568;2023-05-06T11:37:05;1.38;;;0.40;;
51475;SDS011;37554;50.362;7.568;2023-05-06T11:39:33;0.98;;;0.32;;
51475;SDS011;37554;50.362;7.568;2023-05-06T11:42:01;0.90;;;0.20;;
51475;SDS011;37554;50.362;7.568;2023-05-06T11:44:34;1.13;;;0.30;;
51475;SDS011;37554;50.362;7.568;2023-05-06T11:47:02;0.82;;;0.30;;
51475;SDS011;37554;50.362;7.568;2023-05-06T11:49:34;0.82;;;0.30;;
51475;SDS011;37554;50.362;7.568;2023-05-06T11:52:04;0.82;;;0.40;;
51475;SDS011;37554;50.362;7.568;2023-05-06T11:54:32;2.35;;;0.90;;
51475;SDS011;37554;50.362;7.568;2023-05-06T11:56:59;2.72;;;0.80;;
51475;SDS011;37554;50.362;7.568;2023-05-06T11:59:34;0.80;;;0.50;;
51475;SDS011;37554;50.362;7.568;2023-05-06T12:02:02;1.02;;;0.38;;
51475;SDS011;37554;50.362;7.568;2023-05-06T12:04:36;1.98;;;0.20;;
51475;SDS011;37554;50.362;7.568;2023-05-06T12:07:10;1.25;;;0.35;;
51475;SDS011;37554;50.362;7.568;2023-05-06T12:09:44;1.88;;;0.38;;
51475;SDS011;37554;50.362;7.568;2023-05-06T12:12:11;0.50;;;0.30;;
51475;SDS011;37554;50.362;7.568;2023-05-06T12:14:41;3.35;;;0.50;;
51475;SDS011;37554;50.362;7.568;2023-05-06T12:17:08;1.70;;;0.40;;
51475;SDS011;37554;50.362;7.568;2023-05-06T12:19:34;0.80;;;0.30;;
51475;SDS011;37554;50.362;7.568;2023-05-06T12:22:42;1.20;;;0.30;;
51475;SDS011;37554;50.362;7.568;2023-05-06T12:24:48;0.70;;;0.28;;
51475;SDS011;37554;50.362;7.568;2023-05-06T12:27:27;0.52;;;0.20;;
51475;SDS011;37554;50.362;7.568;2023-05-06T12:29:53;0.98;;;0.30;;
51475;SDS011;37554;50.362;7.568;2023-05-06T12:32:19;0.73;;;0.20;;
51475;SDS011;37554;50.362;7.568;2023-05-06T12:34:45;1.33;;;0.30;;
51475;SDS011;37554;50.362;7.568;2023-05-06T12:37:10;2.67;;;0.40;;
51475;SDS011;37554;50.362;7.568;2023-05-06T12:39:47;1.27;;;0.30;;
51475;SDS011;37554;50.362;7.568;2023-05-06T12:42:13;1.20;;;0.40;;
51475;SDS011;37554;50.362;7.568;2023-05-06T12:44:44;0.63;;;0.30;;
51475;SDS011;37554;50.362;7.568;2023-05-06T12:47:19;2.28;;;0.40;;
51475;SDS011;37554;50.362;7.568;2023-05-06T12:49:56;2.25;;;0.32;;
51475;SDS011;37554;50.362;7.568;2023-05-06T12:52:23;1.50;;;0.30;;
51475;SDS011;37554;50.362;7.568;2023-05-06T12:54:50;0.55;;;0.30;;
51475;SDS011;37554;50.362;7.568;2023-05-06T12:57:16;0.50;;;0.30;;
51475;SDS011;37554;50.362;7.568;2023-05-06T12:59:42;0.73;;;0.22;;
51475;SDS011;37554;50.362;7.568;2023-05-06T13:02:11;0.13;;;0.10;;
51475;SDS011;37554;50.362;7.568;2023-05-06T13:04:37;0.80;;;0.40;;
51475;SDS011;37554;50.362;7.568;2023-05-06T13:07:03;0.55;;;0.30;;
51475;SDS011;37554;50.362;7.568;2023-05-06T13:09:29;1.00;;;0.30;;
51475;SDS011;37554;50.362;7.568;2023-05-06T13:11:55;1.83;;;0.45;;
51475;SDS011;37554;50.362;7.568;2023-05-06T13:14:21;0.73;;;0.25;;
51475;SDS011;37554;50.362;7.568;2023-05-06T13:16:47;1.60;;;0.40;;
51475;SDS011;37554;50.362;7.568;2023-05-06T13:19:13;0.90;;;0.35;;
51475;SDS011;37554;50.362;7.568;2023-05-06T13:21:39;1.73;;;0.38;;
51475;SDS011;37554;50.362;7.568;2023-05-06T13:24:06;0.85;;;0.30;;
51475;SDS011;37554;50.362;7.568;2023-05-06T13:26:33;0.52;;;0.30;;
51475;SDS011;37554;50.362;7.568;2023-05-06T13:28:59;0.47;;;0.30;;
51475;SDS011;37554;50.362;7.568;2023-05-06T13:31:25;3.22;;;0.30;;
51475;SDS011;37554;50.362;7.568;2023-05-06T13:33:52;2.17;;;0.30;;
51475;SDS011;37554;50.362;7.568;2023-05-06T13:36:19;0.57;;;0.35;;
51475;SDS011;37554;50.362;7.568;2023-05-06T13:38:45;1.05;;;0.30;;
51475;SDS011;37554;50.362;7.568;2023-05-06T13:41:11;0.77;;;0.22;;
51475;SDS011;37554;50.362;7.568;2023-05-06T13:43:37;1.30;;;0.20;;
51475;SDS011;37554;50.362;7.568;2023-05-06T13:46:02;1.02;;;0.38;;
51475;SDS011;37554;50.362;7.568;2023-05-06T13:48:28;0.80;;;0.47;;
51475;SDS011;37554;50.362;7.568;2023-05-06T13:50:53;0.40;;;0.20;;
51475;SDS011;37554;50.362;7.568;2023-05-06T13:53:19;2.35;;;0.20;;
51475;SDS011;37554;50.362;7.568;2023-05-06T13:55:45;0.50;;;0.20;;
51475;SDS011;37554;50.362;7.568;2023-05-06T13:58:11;0.95;;;0.38;;
51475;SDS011;37554;50.362;7.568;2023-05-06T14:00:36;0.95;;;0.50;;
51475;SDS011;37554;50.362;7.568;2023-05-06T14:03:02;0.88;;;0.30;;
51475;SDS011;37554;50.362;7.568;2023-05-06T14:05:28;1.05;;;0.40;;
51475;SDS011;37554;50.362;7.568;2023-05-06T14:07:54;1.38;;;0.40;;
51475;SDS011;37554;50.362;7.568;2023-05-06T14:10:19;0.50;;;0.30;;
51475;SDS011;37554;50.362;7.568;2023-05-06T14:12:45;0.63;;;0.32;;
51475;SDS011;37554;50.362;7.568;2023-05-06T14:15:11;1.02;;;0.30;;
51475;SDS011;37554;50.362;7.568;2023-05-06T14:17:39;0.55;;;0.25;;
51475;SDS011;37554;50.362;7.568;2023-05-06T14:20:05;2.50;;;0.40;;
51475;SDS011;37554;50.362;7.568;2023-05-06T14:22:33;0.30;;;0.30;;
51475;SDS011;37554;50.362;7.568;2023-05-06T14:25:00;1.10;;;0.30;;
51475;SDS011;37554;50.362;7.568;2023-05-06T14:27:26;0.75;;;0.25;;
51475;SDS011;37554;50.362;7.568;2023-05-06T14:29:52;1.98;;;0.30;;
51475;SDS011;37554;50.362;7.568;2023-05-06T14:32:17;0.52;;;0.20;;
51475;SDS011;37554;50.362;7.568;2023-05-06T14:34:43;0.40;;;0.20;;
51475;SDS011;37554;50.362;7.568;2023-05-06T14:37:08;0.90;;;0.20;;
51475;SDS011;37554;50.362;7.568;2023-05-06T14:39:34;1.00;;;0.30;;
51475;SDS011;37554;50.362;7.568;2023-05-06T14:42:00;3.78;;;0.57;;
51475;SDS011;37554;50.362;7.568;2023-05-06T14:44:25;1.88;;;0.32;;
51475;SDS011;37554;50.362;7.568;2023-05-06T14:46:51;3.55;;;0.57;;
51475;SDS011;37554;50.362;7.568;2023-05-06T14:49:17;1.77;;;0.50;;
51475;SDS011;37554;50.362;7.568;2023-05-06T14:51:42;3.25;;;0.70;;
51475;SDS011;37554;50.362;7.568;2023-05-06T14:54:08;7.95;;;0.40;;
51475;SDS011;37554;50.362;7.568;2023-05-06T14:56:34;3.20;;;0.70;;
51475;SDS011;37554;50.362;7.568;2023-05-06T14:59:00;2.20;;;0.40;;
51475;SDS011;37554;50.362;7.568;2023-05-06T15:01:26;2.40;;;0.50;;
51475;SDS011;37554;50.362;7.568;2023-05-06T15:03:51;4.07;;;0.60;;
51475;SDS011;37554;50.362;7.568;2023-05-06T15:06:17;1.73;;;0.63;;
51475;SDS011;37554;50.362;7.568;2023-05-06T15:08:44;2.55;;;0.40;;
51475;SDS011;37554;50.362;7.568;2023-05-06T15:11:10;2.42;;;0.40;;
51475;SDS011;37554;50.362;7.568;2023-05-06T15:13:36;3.75;;;0.60;;